createdAt,value
2018-12-04T00:00:14.435Z,961.8
2018-12-04T00:10:17.824Z,961.8
2018-12-04T00:20:21.254Z,961.7
2018-12-04T00:30:24.679Z,961.9
2018-12-04T00:40:28.135Z,961.9
2018-12-04T00:50:31.587Z,962.6
2018-12-04T01:00:35.018Z,962.7
2018-12-04T01:10:38.438Z,963.1
2018-12-04T01:20:41.872Z,963
2018-12-04T01:30:45.270Z,962.9
2018-12-04T01:40:48.694Z,963.2
2018-12-04T01:50:52.144Z,963
2018-12-04T02:00:55.579Z,963.2
2018-12-04T02:10:58.992Z,963.3
2018-12-04T02:21:02.417Z,963.4
2018-12-04T02:31:05.863Z,963.5
2018-12-04T02:41:09.285Z,963.2
2018-12-04T02:51:12.704Z,963.3
2018-12-04T03:01:16.130Z,963.7
2018-12-04T03:11:19.553Z,963.5
2018-12-04T03:21:23.997Z,963.6
2018-12-04T03:31:27.460Z,963.7
2018-12-04T03:41:30.872Z,963.9
2018-12-04T03:51:34.305Z,963.7
2018-12-04T04:01:37.732Z,963.7
2018-12-04T04:11:41.157Z,963.6
2018-12-04T04:21:44.624Z,963.7
2018-12-04T04:31:48.030Z,964
2018-12-04T04:41:51.455Z,964.4
2018-12-04T04:51:54.872Z,964.5
2018-12-04T05:01:58.318Z,964.9
2018-12-04T05:12:02.758Z,964.4
2018-12-04T05:22:06.164Z,964.8
2018-12-04T05:32:09.578Z,965.2
2018-12-04T05:42:13.011Z,965.8
2018-12-04T05:52:16.420Z,965.8
2018-12-04T06:02:19.828Z,966
2018-12-04T06:12:23.239Z,966.2
2018-12-04T06:22:26.638Z,966.2
2018-12-04T06:32:30.046Z,966.5
2018-12-04T06:42:33.483Z,959.2
2018-12-04T06:52:36.868Z,966.7
2018-12-04T07:02:40.353Z,967
2018-12-04T07:12:43.796Z,959.6
2018-12-04T07:22:47.227Z,959.8
2018-12-04T07:32:50.656Z,967.5
2018-12-04T07:42:54.093Z,967.7
2018-12-04T07:52:57.514Z,967.6
2018-12-04T08:03:00.950Z,967.9
2018-12-04T08:13:04.405Z,968.2
2018-12-04T08:23:07.844Z,965.1
2018-12-04T08:33:11.270Z,963.1
2018-12-04T08:43:14.692Z,962.7
2018-12-04T08:53:18.127Z,963.7
2018-12-04T09:03:21.556Z,964.4
2018-12-04T09:13:24.948Z,964.3
2018-12-04T09:23:28.607Z,963.8
2018-12-04T09:33:32.127Z,964.6
2018-12-04T09:43:35.598Z,965.5
2018-12-04T09:53:39.023Z,964.9
2018-12-04T10:03:42.461Z,965.5
2018-12-04T10:13:45.858Z,965.9
2018-12-04T10:23:49.285Z,966.2
2018-12-04T10:33:52.696Z,966.3
2018-12-04T10:43:56.160Z,966.7
2018-12-04T10:53:59.574Z,967.1
2018-12-04T11:04:02.997Z,967.2
2018-12-04T11:14:06.445Z,967.2
2018-12-04T11:24:09.888Z,967.5
2018-12-04T11:34:13.363Z,967.5
2018-12-04T11:44:16.792Z,967.7
2018-12-04T11:54:20.273Z,967.6
2018-12-04T12:04:23.685Z,967.5
2018-12-04T12:14:27.121Z,967.5
2018-12-04T12:24:30.542Z,967.8
2018-12-04T12:34:33.963Z,967.5
2018-12-04T12:44:38.663Z,967.7
2018-12-04T12:54:42.087Z,967.8
2018-12-04T13:04:45.533Z,967.8
2018-12-04T13:14:48.965Z,968
2018-12-04T13:24:52.451Z,968
2018-12-04T13:34:55.904Z,967.7
2018-12-04T13:44:59.312Z,967.8
2018-12-04T13:55:02.767Z,967.9
2018-12-04T14:05:08.573Z,968.2
2018-12-04T14:15:12.079Z,968.9
2018-12-04T14:25:15.562Z,969.7
2018-12-04T14:35:19.122Z,970.2
2018-12-04T14:45:22.629Z,970.5
2018-12-04T14:55:26.058Z,971.3
2018-12-04T15:05:29.493Z,971.8
2018-12-04T15:15:32.953Z,971.8
2018-12-04T15:25:36.467Z,971.8
2018-12-04T15:35:39.984Z,972.2
2018-12-04T15:45:43.426Z,972.3
2018-12-04T15:55:46.830Z,972.7
2018-12-04T16:05:50.234Z,973
2018-12-04T16:15:53.660Z,972.7
2018-12-04T16:25:57.067Z,972.9
2018-12-04T16:36:00.516Z,973.2
2018-12-04T16:46:04.992Z,965.9
2018-12-04T16:56:08.441Z,973.6
2018-12-04T17:06:11.862Z,966.2
2018-12-04T17:16:15.315Z,966.6
2018-12-04T17:26:18.752Z,966.4
2018-12-04T17:36:22.164Z,966.5
2018-12-04T17:46:25.575Z,966.8
2018-12-04T17:56:28.982Z,967.7
2018-12-04T18:06:32.415Z,967.7
2018-12-04T18:16:35.856Z,967.8
2018-12-04T18:26:39.300Z,967.9
2018-12-04T18:36:42.736Z,967.9
2018-12-04T18:46:46.184Z,967.4
2018-12-04T18:56:49.582Z,967.6
2018-12-04T19:06:53.005Z,967.6
2018-12-04T19:16:56.445Z,968.1
2018-12-04T19:26:59.849Z,967.7
2018-12-04T19:37:03.642Z,968.4
2018-12-04T19:47:07.080Z,968
2018-12-04T19:57:10.510Z,968.2
2018-12-04T20:07:14.236Z,968
2018-12-04T20:17:17.689Z,968.6
2018-12-04T20:27:21.118Z,968.1
2018-12-04T20:37:24.552Z,968.2
2018-12-04T20:47:28.003Z,968.3
2018-12-04T20:57:31.447Z,968.7
2018-12-04T21:07:34.875Z,968.2
2018-12-04T21:17:38.330Z,968.5
2018-12-04T21:27:41.761Z,968.4
2018-12-04T21:37:45.186Z,968.9
2018-12-04T21:47:48.593Z,968.8
2018-12-04T21:57:52.014Z,968.6
2018-12-04T22:07:55.397Z,968.7
2018-12-04T22:17:58.837Z,969.2
2018-12-04T22:28:02.262Z,969.1
2018-12-04T22:38:05.710Z,968.9
2018-12-04T22:48:09.112Z,969.4
2018-12-04T22:58:12.524Z,969.2
2018-12-04T23:08:15.913Z,969.3
2018-12-04T23:18:19.333Z,969.5
2018-12-04T23:28:22.729Z,969.6
2018-12-04T23:38:26.132Z,969.1
2018-12-04T23:48:29.578Z,969.4
2018-12-04T23:58:32.991Z,969.2
